Main page
METAR-TAF:

METAR-TAF

Airports :

Pskov Airport

Pskov, Russia

latitude: 57-47-06N, longitude: 028-23-54E, elevation: 47 m

Current weather observation

The report was made 1 hour and 11 minutes ago, at 22:00 UTC
Wind 4 kt from the North/Northeast
Temperature -10°C
Humidity 92%
Pressure 1009 hPa
Visibility 10 km or more
Broken clouds at a height of 1600 ft

METAR: ULOO 042200Z 02002MPS 9999 BKN016 M10/M11 Q1009 R19/820339 NOSIG RMK QFE753

Time: 02:11 (23:11 UTC)

Forecast

The report was made 3 hours and 14 minutes ago, at 19:57 UTC
Forecast valid from 04 at 21 UTC to 05 at 06 UTC
Wind 6 kt from the Northeast
Visibility: 6000 m
Broken clouds at a height of 1000 ft
Temporary
from 04 at 21 UTC to 05 at 01 UTC
Few clouds at a height of 500 ft
Broken clouds at a height of 1600 ft, Cumulonimbus.
light snow showers
Becoming
from 05 at 01 UTC to 05 at 02 UTC
Broken clouds at a height of 1600 ft

TAF: ULOO 041957Z 0421/0506 05003MPS 6000 BKN010 TEMPO 0421/0501 -SHSN FEW005 BKN016CB BECMG 0501/0502 BKN016

Weather observations and forecasts of more than 4000 airports (METAR and TAF reports).

The available stations are represented by yellow and red dots on the map.

Hover mouse over dot to see the name of the station.

Then click to see weather observations and forecasts.

To change the map : click on the green buttons with a black cross to zoom in, on the green button with a dash to zoom out, or on the green arrows for adjacent maps.


METAR-TAF: